sensor_id;sensor_type;location;lat;lon;timestamp;temperature;humidity
42803;DHT22;28447;48.682;9.022;2023-04-15T04:01:57;1.30;99.90
42803;DHT22;28447;48.682;9.022;2023-04-15T04:04:22;1.30;99.90
42803;DHT22;28447;48.682;9.022;2023-04-15T04:06:49;1.30;99.90
42803;DHT22;28447;48.682;9.022;2023-04-15T04:09:15;1.20;99.90
42803;DHT22;28447;48.682;9.022;2023-04-15T04:11:41;1.20;99.90
42803;DHT22;28447;48.682;9.022;2023-04-15T04:14:06;1.20;99.90
42803;DHT22;28447;48.682;9.022;2023-04-15T04:16:32;1.20;99.90
42803;DHT22;28447;48.682;9.022;2023-04-15T04:18:59;1.20;99.90
42803;DHT22;28447;48.682;9.022;2023-04-15T04:21:26;1.10;99.90
42803;DHT22;28447;48.682;9.022;2023-04-15T04:23:52;1.20;99.90
42803;DHT22;28447;48.682;9.022;2023-04-15T04:26:18;1.20;99.90
42803;DHT22;28447;48.682;9.022;2023-04-15T04:28:44;1.20;99.90
42803;DHT22;28447;48.682;9.022;2023-04-15T04:31:09;1.10;99.90
42803;DHT22;28447;48.682;9.022;2023-04-15T04:33:36;1.10;99.90
42803;DHT22;28447;48.682;9.022;2023-04-15T04:36:02;1.10;99.90
42803;DHT22;28447;48.682;9.022;2023-04-15T04:38:27;1.10;99.90
42803;DHT22;28447;48.682;9.022;2023-04-15T04:40:53;1.10;99.90
42803;DHT22;28447;48.682;9.022;2023-04-15T04:43:18;1.10;99.90
42803;DHT22;28447;48.682;9.022;2023-04-15T04:45:44;1.20;99.90
42803;DHT22;28447;48.682;9.022;2023-04-15T04:48:10;1.20;99.90
42803;DHT22;28447;48.682;9.022;2023-04-15T04:50:35;1.20;99.90
42803;DHT22;28447;48.682;9.022;2023-04-15T04:53:01;1.10;99.90
42803;DHT22;28447;48.682;9.022;2023-04-15T04:55:28;1.10;99.90
42803;DHT22;28447;48.682;9.022;2023-04-15T04:57:54;1.20;99.90
42803;DHT22;28447;48.682;9.022;2023-04-15T05:00:20;1.10;99.90
42803;DHT22;28447;48.682;9.022;2023-04-15T05:02:46;1.20;99.90
42803;DHT22;28447;48.682;9.022;2023-04-15T05:05:12;1.20;99.90
42803;DHT22;28447;48.682;9.022;2023-04-15T05:07:38;1.30;99.90
42803;DHT22;28447;48.682;9.022;2023-04-15T05:10:04;1.30;99.90
42803;DHT22;28447;48.682;9.022;2023-04-15T05:12:30;1.30;99.90
42803;DHT22;28447;48.682;9.022;2023-04-15T05:14:56;1.30;99.90
42803;DHT22;28447;48.682;9.022;2023-04-15T05:17:22;1.20;99.90
42803;DHT22;28447;48.682;9.022;2023-04-15T05:19:48;1.30;99.90
42803;DHT22;28447;48.682;9.022;2023-04-15T05:22:14;1.40;99.90
42803;DHT22;28447;48.682;9.022;2023-04-15T05:24:40;1.50;99.90
42803;DHT22;28447;48.682;9.022;2023-04-15T05:27:07;1.60;99.90
42803;DHT22;28447;48.682;9.022;2023-04-15T05:29:34;1.60;99.90
42803;DHT22;28447;48.682;9.022;2023-04-15T05:32:00;1.70;99.90
42803;DHT22;28447;48.682;9.022;2023-04-15T05:34:26;1.80;99.90
42803;DHT22;28447;48.682;9.022;2023-04-15T05:36:51;1.90;99.90
42803;DHT22;28447;48.682;9.022;2023-04-15T05:39:17;2.00;99.90
42803;DHT22;28447;48.682;9.022;2023-04-15T05:41:43;2.10;99.90
42803;DHT22;28447;48.682;9.022;2023-04-15T05:44:09;2.20;99.90
42803;DHT22;28447;48.682;9.022;2023-04-15T05:46:35;2.40;99.90
42803;DHT22;28447;48.682;9.022;2023-04-15T05:49:00;2.60;99.90
42803;DHT22;28447;48.682;9.022;2023-04-15T05:51:26;2.90;99.90
42803;DHT22;28447;48.682;9.022;2023-04-15T05:53:52;3.10;99.90
42803;DHT22;28447;48.682;9.022;2023-04-15T05:56:17;3.30;99.90
42803;DHT22;28447;48.682;9.022;2023-04-15T05:58:45;3.30;99.90
42803;DHT22;28447;48.682;9.022;2023-04-15T06:01:13;3.40;99.90
42803;DHT22;28447;48.682;9.022;2023-04-15T06:03:38;3.40;99.90
42803;DHT22;28447;48.682;9.022;2023-04-15T06:06:04;3.40;99.90
42803;DHT22;28447;48.682;9.022;2023-04-15T06:08:30;3.50;99.90
42803;DHT22;28447;48.682;9.022;2023-04-15T06:10:57;3.60;99.90
42803;DHT22;28447;48.682;9.022;2023-04-15T06:13:22;3.60;99.90
42803;DHT22;28447;48.682;9.022;2023-04-15T06:15:48;3.70;99.90
42803;DHT22;28447;48.682;9.022;2023-04-15T06:18:14;4.00;99.90
42803;DHT22;28447;48.682;9.022;2023-04-15T06:20:40;4.00;99.90
42803;DHT22;28447;48.682;9.022;2023-04-15T06:23:06;4.10;99.90
42803;DHT22;28447;48.682;9.022;2023-04-15T06:25:33;4.30;99.90
42803;DHT22;28447;48.682;9.022;2023-04-15T06:28:00;4.50;99.90
42803;DHT22;28447;48.682;9.022;2023-04-15T06:30:25;4.70;99.90
42803;DHT22;28447;48.682;9.022;2023-04-15T06:32:51;5.00;99.90
42803;DHT22;28447;48.682;9.022;2023-04-15T06:35:17;5.10;99.90
42803;DHT22;28447;48.682;9.022;2023-04-15T06:37:43;5.10;99.90
42803;DHT22;28447;48.682;9.022;2023-04-15T06:40:09;5.00;99.90
42803;DHT22;28447;48.682;9.022;2023-04-15T06:42:39;5.60;99.90
42803;DHT22;28447;48.682;9.022;2023-04-15T06:45:05;6.00;99.90
42803;DHT22;28447;48.682;9.022;2023-04-15T06:47:31;6.00;99.90
42803;DHT22;28447;48.682;9.022;2023-04-15T06:49:57;5.90;99.90
42803;DHT22;28447;48.682;9.022;2023-04-15T06:52:22;6.10;99.90
42803;DHT22;28447;48.682;9.022;2023-04-15T06:54:48;6.30;99.90
42803;DHT22;28447;48.682;9.022;2023-04-15T06:57:14;6.20;99.90
42803;DHT22;28447;48.682;9.022;2023-04-15T06:59:39;6.40;99.90
42803;DHT22;28447;48.682;9.022;2023-04-15T07:02:07;6.70;99.90
42803;DHT22;28447;48.682;9.022;2023-04-15T07:04:35;6.80;99.90
42803;DHT22;28447;48.682;9.022;2023-04-15T07:07:01;6.80;99.90
42803;DHT22;28447;48.682;9.022;2023-04-15T07:09:27;6.80;99.90
42803;DHT22;28447;48.682;9.022;2023-04-15T07:11:52;7.10;99.90
42803;DHT22;28447;48.682;9.022;2023-04-15T07:14:18;7.30;99.90
42803;DHT22;28447;48.682;9.022;2023-04-15T07:16:43;7.60;99.90
42803;DHT22;28447;48.682;9.022;2023-04-15T07:19:10;7.80;99.90
42803;DHT22;28447;48.682;9.022;2023-04-15T07:21:37;7.90;99.90
42803;DHT22;28447;48.682;9.022;2023-04-15T07:24:04;8.40;99.90
42803;DHT22;28447;48.682;9.022;2023-04-15T07:26:30;8.80;99.90
42803;DHT22;28447;48.682;9.022;2023-04-15T07:28:56;8.90;99.90
42803;DHT22;28447;48.682;9.022;2023-04-15T07:31:21;9.10;99.90
42803;DHT22;28447;48.682;9.022;2023-04-15T07:33:47;8.80;99.90
42803;DHT22;28447;48.682;9.022;2023-04-15T07:36:13;9.50;99.90
42803;DHT22;28447;48.682;9.022;2023-04-15T07:38:39;9.50;99.90
42803;DHT22;28447;48.682;9.022;2023-04-15T07:41:05;9.50;99.90
42803;DHT22;28447;48.682;9.022;2023-04-15T07:43:31;9.70;99.90
42803;DHT22;28447;48.682;9.022;2023-04-15T07:45:56;9.60;99.90
42803;DHT22;28447;48.682;9.022;2023-04-15T07:48:22;9.50;99.90
42803;DHT22;28447;48.682;9.022;2023-04-15T07:50:47;9.80;99.90
42803;DHT22;28447;48.682;9.022;2023-04-15T07:53:13;10.00;99.90
42803;DHT22;28447;48.682;9.022;2023-04-15T07:55:39;9.70;99.90
42803;DHT22;28447;48.682;9.022;2023-04-15T07:58:05;9.90;99.90
42803;DHT22;28447;48.682;9.022;2023-04-15T08:00:31;9.90;99.90
42803;DHT22;28447;48.682;9.022;2023-04-15T08:02:56;10.10;99.90
42803;DHT22;28447;48.682;9.022;2023-04-15T08:05:23;10.60;99.90
42803;DHT22;28447;48.682;9.022;2023-04-15T08:07:50;10.60;99.90
42803;DHT22;28447;48.682;9.022;2023-04-15T08:10:16;10.90;99.90
42803;DHT22;28447;48.682;9.022;2023-04-15T08:12:42;10.60;99.90
42803;DHT22;28447;48.682;9.022;2023-04-15T08:15:09;11.30;99.90
42803;DHT22;28447;48.682;9.022;2023-04-15T08:17:35;11.70;99.90
42803;DHT22;28447;48.682;9.022;2023-04-15T08:20:02;12.20;99.90
42803;DHT22;28447;48.682;9.022;2023-04-15T08:22:28;12.70;99.90
42803;DHT22;28447;48.682;9.022;2023-04-15T08:24:54;12.90;99.90
42803;DHT22;28447;48.682;9.022;2023-04-15T08:27:20;12.90;99.90
42803;DHT22;28447;48.682;9.022;2023-04-15T08:29:45;12.50;99.90
42803;DHT22;28447;48.682;9.022;2023-04-15T08:32:12;12.30;99.90
42803;DHT22;28447;48.682;9.022;2023-04-15T08:34:38;12.10;99.90
42803;DHT22;28447;48.682;9.022;2023-04-15T08:37:03;11.90;99.90
42803;DHT22;28447;48.682;9.022;2023-04-15T08:39:29;12.30;99.90
42803;DHT22;28447;48.682;9.022;2023-04-15T08:42:03;12.30;99.90
42803;DHT22;28447;48.682;9.022;2023-04-15T08:44:34;12.30;99.90
42803;DHT22;28447;48.682;9.022;2023-04-15T08:47:02;12.30;99.90
42803;DHT22;28447;48.682;9.022;2023-04-15T08:49:28;12.20;99.90
42803;DHT22;28447;48.682;9.022;2023-04-15T08:51:55;12.60;99.90
42803;DHT22;28447;48.682;9.022;2023-04-15T08:54:22;13.20;99.90
42803;DHT22;28447;48.682;9.022;2023-04-15T08:56:49;13.00;99.90
42803;DHT22;28447;48.682;9.022;2023-04-15T08:59:14;13.10;99.90
42803;DHT22;28447;48.682;9.022;2023-04-15T09:01:41;13.20;99.90
42803;DHT22;28447;48.682;9.022;2023-04-15T09:04:07;13.90;99.90
42803;DHT22;28447;48.682;9.022;2023-04-15T09:06:33;13.70;99.90
42803;DHT22;28447;48.682;9.022;2023-04-15T09:08:59;13.90;99.90
42803;DHT22;28447;48.682;9.022;2023-04-15T09:11:25;13.70;99.90
42803;DHT22;28447;48.682;9.022;2023-04-15T09:13:51;13.50;99.30
42803;DHT22;28447;48.682;9.022;2023-04-15T09:16:17;13.60;98.70
42803;DHT22;28447;48.682;9.022;2023-04-15T09:18:43;13.70;99.20
42803;DHT22;28447;48.682;9.022;2023-04-15T09:21:16;13.80;98.70
42803;DHT22;28447;48.682;9.022;2023-04-15T09:23:59;14.20;97.90
42803;DHT22;28447;48.682;9.022;2023-04-15T09:26:36;14.50;99.10
42803;DHT22;28447;48.682;9.022;2023-04-15T09:29:13;14.60;99.50
42803;DHT22;28447;48.682;9.022;2023-04-15T09:31:40;14.70;97.60
42803;DHT22;28447;48.682;9.022;2023-04-15T09:34:06;14.90;96.60
42803;DHT22;28447;48.682;9.022;2023-04-15T09:36:51;14.40;96.30
42803;DHT22;28447;48.682;9.022;2023-04-15T09:39:17;14.20;97.60
42803;DHT22;28447;48.682;9.022;2023-04-15T09:41:44;14.20;94.60
42803;DHT22;28447;48.682;9.022;2023-04-15T09:44:24;14.30;96.30
42803;DHT22;28447;48.682;9.022;2023-04-15T09:46:51;14.60;96.80
42803;DHT22;28447;48.682;9.022;2023-04-15T09:49:17;15.70;98.10
42803;DHT22;28447;48.682;9.022;2023-04-15T09:51:43;15.10;94.90
42803;DHT22;28447;48.682;9.022;2023-04-15T09:54:09;15.10;96.70
42803;DHT22;28447;48.682;9.022;2023-04-15T09:56:36;16.20;92.10
42803;DHT22;28447;48.682;9.022;2023-04-15T09:59:04;15.40;97.80
42803;DHT22;28447;48.682;9.022;2023-04-15T10:01:30;15.50;92.80
42803;DHT22;28447;48.682;9.022;2023-04-15T10:03:57;15.20;93.50
42803;DHT22;28447;48.682;9.022;2023-04-15T10:06:25;15.30;93.70
42803;DHT22;28447;48.682;9.022;2023-04-15T10:08:59;15.80;94.80
42803;DHT22;28447;48.682;9.022;2023-04-15T10:11:28;16.50;99.90
42803;DHT22;28447;48.682;9.022;2023-04-15T10:13:55;16.00;97.70
42803;DHT22;28447;48.682;9.022;2023-04-15T10:16:26;15.90;98.20
42803;DHT22;28447;48.682;9.022;2023-04-15T10:18:56;16.00;98.50
42803;DHT22;28447;48.682;9.022;2023-04-15T10:21:23;15.90;97.50
42803;DHT22;28447;48.682;9.022;2023-04-15T10:23:50;15.20;98.60
42803;DHT22;28447;48.682;9.022;2023-04-15T10:26:16;15.20;99.10
42803;DHT22;28447;48.682;9.022;2023-04-15T10:29:02;15.40;97.30
42803;DHT22;28447;48.682;9.022;2023-04-15T10:31:29;15.10;95.50
42803;DHT22;28447;48.682;9.022;2023-04-15T10:33:57;15.20;96.60
42803;DHT22;28447;48.682;9.022;2023-04-15T10:36:28;15.10;96.30
42803;DHT22;28447;48.682;9.022;2023-04-15T10:38:54;15.20;96.40
42803;DHT22;28447;48.682;9.022;2023-04-15T10:41:24;15.20;96.60
42803;DHT22;28447;48.682;9.022;2023-04-15T10:44:03;15.10;97.10
42803;DHT22;28447;48.682;9.022;2023-04-15T10:46:43;15.00;96.80
42803;DHT22;28447;48.682;9.022;2023-04-15T10:49:24;14.80;97.10
42803;DHT22;28447;48.682;9.022;2023-04-15T10:51:51;15.00;97.10
42803;DHT22;28447;48.682;9.022;2023-04-15T10:59:34;14.70;98.50
42803;DHT22;28447;48.682;9.022;2023-04-15T11:02:02;14.50;98.00
42803;DHT22;28447;48.682;9.022;2023-04-15T11:04:51;15.30;98.20
42803;DHT22;28447;48.682;9.022;2023-04-15T11:12:55;14.90;99.80
42803;DHT22;28447;48.682;9.022;2023-04-15T11:15:34;14.80;99.90
42803;DHT22;28447;48.682;9.022;2023-04-15T11:18:22;14.40;99.90
42803;DHT22;28447;48.682;9.022;2023-04-15T11:20:50;14.10;99.90
42803;DHT22;28447;48.682;9.022;2023-04-15T11:23:36;14.20;99.90
42803;DHT22;28447;48.682;9.022;2023-04-15T11:26:05;14.10;99.90
42803;DHT22;28447;48.682;9.022;2023-04-15T11:28:37;14.60;99.90
42803;DHT22;28447;48.682;9.022;2023-04-15T11:31:15;14.90;99.90
42803;DHT22;28447;48.682;9.022;2023-04-15T11:33:52;16.30;99.80
42803;DHT22;28447;48.682;9.022;2023-04-15T11:36:25;16.20;98.50
42803;DHT22;28447;48.682;9.022;2023-04-15T11:38:51;15.70;98.40
42803;DHT22;28447;48.682;9.022;2023-04-15T11:41:21;14.90;98.30
42803;DHT22;28447;48.682;9.022;2023-04-15T11:43:48;15.60;99.20
42803;DHT22;28447;48.682;9.022;2023-04-15T11:46:13;16.00;97.70
42803;DHT22;28447;48.682;9.022;2023-04-15T11:48:44;16.60;97.60
42803;DHT22;28447;48.682;9.022;2023-04-15T11:51:10;17.90;94.10
42803;DHT22;28447;48.682;9.022;2023-04-15T11:53:49;18.40;90.30
42803;DHT22;28447;48.682;9.022;2023-04-15T11:56:22;18.50;91.20
42803;DHT22;28447;48.682;9.022;2023-04-15T11:58:51;17.70;90.60
42803;DHT22;28447;48.682;9.022;2023-04-15T12:01:17;17.60;90.70
42803;DHT22;28447;48.682;9.022;2023-04-15T12:03:48;16.40;90.00
42803;DHT22;28447;48.682;9.022;2023-04-15T12:16:33;16.80;91.30
42803;DHT22;28447;48.682;9.022;2023-04-15T12:19:03;17.00;90.40
42803;DHT22;28447;48.682;9.022;2023-04-15T12:21:34;17.00;90.90
42803;DHT22;28447;48.682;9.022;2023-04-15T12:26:47;19.00;90.80
42803;DHT22;28447;48.682;9.022;2023-04-15T12:29:18;19.00;91.00
42803;DHT22;28447;48.682;9.022;2023-04-15T12:37:02;19.40;92.10
42803;DHT22;28447;48.682;9.022;2023-04-15T12:39:39;18.70;91.40
42803;DHT22;28447;48.682;9.022;2023-04-15T12:42:06;17.10;92.10
42803;DHT22;28447;48.682;9.022;2023-04-15T12:44:33;16.00;92.20
42803;DHT22;28447;48.682;9.022;2023-04-15T12:47:00;16.30;91.70
42803;DHT22;28447;48.682;9.022;2023-04-15T12:49:27;16.30;87.10
42803;DHT22;28447;48.682;9.022;2023-04-15T12:51:56;16.30;87.60
42803;DHT22;28447;48.682;9.022;2023-04-15T12:54:23;16.70;88.50
42803;DHT22;28447;48.682;9.022;2023-04-15T12:56:50;16.80;86.10
42803;DHT22;28447;48.682;9.022;2023-04-15T12:59:19;16.30;86.40
42803;DHT22;28447;48.682;9.022;2023-04-15T13:01:54;15.90;90.00
42803;DHT22;28447;48.682;9.022;2023-04-15T13:04:21;16.10;86.20
42803;DHT22;28447;48.682;9.022;2023-04-15T13:06:47;16.80;88.20
42803;DHT22;28447;48.682;9.022;2023-04-15T13:09:12;17.20;90.70
42803;DHT22;28447;48.682;9.022;2023-04-15T13:11:38;16.50;92.40
42803;DHT22;28447;48.682;9.022;2023-04-15T13:14:08;16.10;92.60
42803;DHT22;28447;48.682;9.022;2023-04-15T13:16:35;15.70;93.10
42803;DHT22;28447;48.682;9.022;2023-04-15T13:19:03;15.50;92.70
42803;DHT22;28447;48.682;9.022;2023-04-15T13:21:30;15.00;93.20
42803;DHT22;28447;48.682;9.022;2023-04-15T13:23:59;15.00;93.80
42803;DHT22;28447;48.682;9.022;2023-04-15T13:26:26;15.20;93.00
42803;DHT22;28447;48.682;9.022;2023-04-15T13:28:52;14.50;94.10
42803;DHT22;28447;48.682;9.022;2023-04-15T13:31:18;14.10;94.10
42803;DHT22;28447;48.682;9.022;2023-04-15T13:33:43;13.70;93.60
42803;DHT22;28447;48.682;9.022;2023-04-15T13:36:10;13.40;95.50
42803;DHT22;28447;48.682;9.022;2023-04-15T13:38:36;12.90;94.50
42803;DHT22;28447;48.682;9.022;2023-04-15T13:41:06;12.60;94.70
42803;DHT22;28447;48.682;9.022;2023-04-15T13:43:32;12.70;94.40
42803;DHT22;28447;48.682;9.022;2023-04-15T13:45:58;12.80;94.20
42803;DHT22;28447;48.682;9.022;2023-04-15T13:48:24;12.60;94.50
42803;DHT22;28447;48.682;9.022;2023-04-15T13:50:49;12.50;95.10
42803;DHT22;28447;48.682;9.022;2023-04-15T13:53:15;12.00;99.90
42803;DHT22;28447;48.682;9.022;2023-04-15T13:55:41;11.70;99.90
42803;DHT22;28447;48.682;9.022;2023-04-15T13:58:10;11.70;99.90
42803;DHT22;28447;48.682;9.022;2023-04-15T14:00:36;11.80;99.90
42803;DHT22;28447;48.682;9.022;2023-04-15T14:03:02;12.40;99.90
42803;DHT22;28447;48.682;9.022;2023-04-15T14:05:28;12.30;99.90
42803;DHT22;28447;48.682;9.022;2023-04-15T14:07:54;12.40;99.90
42803;DHT22;28447;48.682;9.022;2023-04-15T14:10:20;12.50;99.90
42803;DHT22;28447;48.682;9.022;2023-04-15T14:12:47;12.40;99.70
42803;DHT22;28447;48.682;9.022;2023-04-15T14:15:12;13.00;99.90
42803;DHT22;28447;48.682;9.022;2023-04-15T14:17:38;13.10;99.90
42803;DHT22;28447;48.682;9.022;2023-04-15T14:20:07;13.20;99.90
42803;DHT22;28447;48.682;9.022;2023-04-15T14:22:33;13.40;99.40
42803;DHT22;28447;48.682;9.022;2023-04-15T14:24:58;12.80;96.00
42803;DHT22;28447;48.682;9.022;2023-04-15T14:27:25;12.50;95.20
42803;DHT22;28447;48.682;9.022;2023-04-15T14:29:51;12.40;93.70
42803;DHT22;28447;48.682;9.022;2023-04-15T14:32:19;12.40;95.40
42803;DHT22;28447;48.682;9.022;2023-04-15T14:34:45;12.20;95.10
42803;DHT22;28447;48.682;9.022;2023-04-15T14:37:12;12.10;96.50
42803;DHT22;28447;48.682;9.022;2023-04-15T14:39:37;11.80;96.60
42803;DHT22;28447;48.682;9.022;2023-04-15T14:42:03;11.90;96.90
42803;DHT22;28447;48.682;9.022;2023-04-15T14:44:30;11.70;97.70
42803;DHT22;28447;48.682;9.022;2023-04-15T14:46:55;11.80;99.20
42803;DHT22;28447;48.682;9.022;2023-04-15T14:49:21;12.10;97.20
42803;DHT22;28447;48.682;9.022;2023-04-15T14:51:47;12.10;97.30
42803;DHT22;28447;48.682;9.022;2023-04-15T14:54:16;11.80;97.50
42803;DHT22;28447;48.682;9.022;2023-04-15T14:56:42;11.70;98.00
42803;DHT22;28447;48.682;9.022;2023-04-15T14:59:07;11.50;98.10
42803;DHT22;28447;48.682;9.022;2023-04-15T15:01:33;11.70;98.90
42803;DHT22;28447;48.682;9.022;2023-04-15T15:03:59;11.70;98.50
42803;DHT22;28447;48.682;9.022;2023-04-15T15:06:25;11.60;98.70
42803;DHT22;28447;48.682;9.022;2023-04-15T15:08:50;11.70;98.90
42803;DHT22;28447;48.682;9.022;2023-04-15T15:11:16;11.60;99.80
42803;DHT22;28447;48.682;9.022;2023-04-15T15:13:42;11.60;99.80
42803;DHT22;28447;48.682;9.022;2023-04-15T15:16:09;11.50;99.90
42803;DHT22;28447;48.682;9.022;2023-04-15T15:18:35;11.50;99.90
42803;DHT22;28447;48.682;9.022;2023-04-15T15:21:01;11.20;99.90
42803;DHT22;28447;48.682;9.022;2023-04-15T15:23:27;11.10;99.90
42803;DHT22;28447;48.682;9.022;2023-04-15T15:25:53;11.20;99.90
42803;DHT22;28447;48.682;9.022;2023-04-15T15:28:18;11.40;99.90
42803;DHT22;28447;48.682;9.022;2023-04-15T15:30:46;11.30;99.90
42803;DHT22;28447;48.682;9.022;2023-04-15T15:33:12;11.20;99.90
42803;DHT22;28447;48.682;9.022;2023-04-15T15:35:38;11.00;99.90
42803;DHT22;28447;48.682;9.022;2023-04-15T15:38:05;11.20;99.90
42803;DHT22;28447;48.682;9.022;2023-04-15T15:40:33;11.00;99.90
42803;DHT22;28447;48.682;9.022;2023-04-15T15:42:58;11.00;99.90
42803;DHT22;28447;48.682;9.022;2023-04-15T15:45:24;11.00;99.90
42803;DHT22;28447;48.682;9.022;2023-04-15T15:47:50;11.00;99.90
42803;DHT22;28447;48.682;9.022;2023-04-15T15:50:16;10.90;99.90
42803;DHT22;28447;48.682;9.022;2023-04-15T15:52:41;11.00;99.90
42803;DHT22;28447;48.682;9.022;2023-04-15T15:55:07;11.00;99.90
42803;DHT22;28447;48.682;9.022;2023-04-15T15:57:33;11.20;99.90
42803;DHT22;28447;48.682;9.022;2023-04-15T15:59:59;11.20;99.90
42803;DHT22;28447;48.682;9.022;2023-04-15T16:02:24;11.30;99.90
42803;DHT22;28447;48.682;9.022;2023-04-15T16:04:50;11.00;99.90
42803;DHT22;28447;48.682;9.022;2023-04-15T16:07:17;10.90;99.90
42803;DHT22;28447;48.682;9.022;2023-04-15T16:09:42;10.80;99.90
42803;DHT22;28447;48.682;9.022;2023-04-15T16:12:10;10.70;99.90
42803;DHT22;28447;48.682;9.022;2023-04-15T16:14:36;10.80;99.90
42803;DHT22;28447;48.682;9.022;2023-04-15T16:17:03;10.90;99.90
42803;DHT22;28447;48.682;9.022;2023-04-15T16:19:32;10.90;99.90
42803;DHT22;28447;48.682;9.022;2023-04-15T16:22:02;10.90;99.90
42803;DHT22;28447;48.682;9.022;2023-04-15T16:24:28;11.00;99.90
42803;DHT22;28447;48.682;9.022;2023-04-15T16:26:54;11.00;99.90
42803;DHT22;28447;48.682;9.022;2023-04-15T16:29:23;11.20;99.90
42803;DHT22;28447;48.682;9.022;2023-04-15T16:31:50;11.00;99.90
42803;DHT22;28447;48.682;9.022;2023-04-15T16:34:18;10.70;99.90
42803;DHT22;28447;48.682;9.022;2023-04-15T16:36:44;10.80;99.90
42803;DHT22;28447;48.682;9.022;2023-04-15T16:39:10;10.70;99.90
42803;DHT22;28447;48.682;9.022;2023-04-15T16:41:37;10.80;99.90
42803;DHT22;28447;48.682;9.022;2023-04-15T16:44:03;10.50;99.90
42803;DHT22;28447;48.682;9.022;2023-04-15T16:46:30;10.40;99.90
42803;DHT22;28447;48.682;9.022;2023-04-15T16:48:56;10.40;99.90
42803;DHT22;28447;48.682;9.022;2023-04-15T16:51:23;10.10;99.90
42803;DHT22;28447;48.682;9.022;2023-04-15T16:53:50;10.20;99.90
42803;DHT22;28447;48.682;9.022;2023-04-15T16:56:16;10.20;99.90
42803;DHT22;28447;48.682;9.022;2023-04-15T16:58:42;10.10;99.90
42803;DHT22;28447;48.682;9.022;2023-04-15T17:01:07;10.30;99.90
42803;DHT22;28447;48.682;9.022;2023-04-15T17:03:35;10.00;99.90
42803;DHT22;28447;48.682;9.022;2023-04-15T17:06:05;9.80;99.90
42803;DHT22;28447;48.682;9.022;2023-04-15T17:08:35;9.80;99.90
42803;DHT22;28447;48.682;9.022;2023-04-15T17:11:05;9.70;99.90
42803;DHT22;28447;48.682;9.022;2023-04-15T17:13:32;9.50;99.90
42803;DHT22;28447;48.682;9.022;2023-04-15T17:15:59;9.30;99.90
42803;DHT22;28447;48.682;9.022;2023-04-15T17:18:24;9.10;99.90
42803;DHT22;28447;48.682;9.022;2023-04-15T17:20:54;9.30;99.90
42803;DHT22;28447;48.682;9.022;2023-04-15T17:23:20;9.10;99.90
42803;DHT22;28447;48.682;9.022;2023-04-15T17:25:46;9.00;99.90
42803;DHT22;28447;48.682;9.022;2023-04-15T17:28:12;8.70;99.90
42803;DHT22;28447;48.682;9.022;2023-04-15T17:30:38;8.60;99.90
42803;DHT22;28447;48.682;9.022;2023-04-15T17:33:07;8.60;99.90
42803;DHT22;28447;48.682;9.022;2023-04-15T17:35:36;8.50;99.90
42803;DHT22;28447;48.682;9.022;2023-04-15T17:38:01;8.40;99.90
42803;DHT22;28447;48.682;9.022;2023-04-15T17:40:29;8.30;99.90
42803;DHT22;28447;48.682;9.022;2023-04-15T17:42:56;8.30;99.90
42803;DHT22;28447;48.682;9.022;2023-04-15T17:45:22;8.40;99.90
42803;DHT22;28447;48.682;9.022;2023-04-15T17:47:50;8.40;99.90
42803;DHT22;28447;48.682;9.022;2023-04-15T17:50:19;8.20;99.90
42803;DHT22;28447;48.682;9.022;2023-04-15T17:52:45;8.10;99.90
42803;DHT22;28447;48.682;9.022;2023-04-15T17:55:12;8.00;99.90
42803;DHT22;28447;48.682;9.022;2023-04-15T17:57:38;7.90;99.90
42803;DHT22;28447;48.682;9.022;2023-04-15T18:00:05;7.80;99.90
42803;DHT22;28447;48.682;9.022;2023-04-15T18:02:31;7.70;99.90
42803;DHT22;28447;48.682;9.022;2023-04-15T18:04:56;7.80;99.90
42803;DHT22;28447;48.682;9.022;2023-04-15T18:07:22;7.80;99.90
42803;DHT22;28447;48.682;9.022;2023-04-15T18:09:49;7.80;99.90
42803;DHT22;28447;48.682;9.022;2023-04-15T18:12:21;7.70;99.90
42803;DHT22;28447;48.682;9.022;2023-04-15T18:14:48;7.70;99.90
42803;DHT22;28447;48.682;9.022;2023-04-15T18:17:14;7.70;99.90
42803;DHT22;28447;48.682;9.022;2023-04-15T18:19:39;7.60;99.90
42803;DHT22;28447;48.682;9.022;2023-04-15T18:22:07;7.60;99.90
42803;DHT22;28447;48.682;9.022;2023-04-15T18:24:33;7.50;99.90
42803;DHT22;28447;48.682;9.022;2023-04-15T18:27:01;7.50;99.90
42803;DHT22;28447;48.682;9.022;2023-04-15T18:29:29;7.50;99.90
42803;DHT22;28447;48.682;9.022;2023-04-15T18:32:04;7.50;99.90
42803;DHT22;28447;48.682;9.022;2023-04-15T18:34:31;7.40;99.90
42803;DHT22;28447;48.682;9.022;2023-04-15T18:36:57;7.40;99.90
42803;DHT22;28447;48.682;9.022;2023-04-15T18:39:24;7.40;99.90
42803;DHT22;28447;48.682;9.022;2023-04-15T18:41:50;7.40;99.90
42803;DHT22;28447;48.682;9.022;2023-04-15T18:44:15;7.40;99.90
42803;DHT22;28447;48.682;9.022;2023-04-15T18:46:41;7.40;99.90
42803;DHT22;28447;48.682;9.022;2023-04-15T18:49:07;7.40;99.90
42803;DHT22;28447;48.682;9.022;2023-04-15T18:51:32;7.40;99.90
42803;DHT22;28447;48.682;9.022;2023-04-15T18:53:58;7.30;99.90
42803;DHT22;28447;48.682;9.022;2023-04-15T18:56:24;7.40;99.90
42803;DHT22;28447;48.682;9.022;2023-04-15T18:58:50;7.50;99.90
42803;DHT22;28447;48.682;9.022;2023-04-15T19:01:15;7.40;99.90
42803;DHT22;28447;48.682;9.022;2023-04-15T19:03:41;7.40;99.90
42803;DHT22;28447;48.682;9.022;2023-04-15T19:06:07;7.40;99.90
42803;DHT22;28447;48.682;9.022;2023-04-15T19:08:32;7.30;99.90
42803;DHT22;28447;48.682;9.022;2023-04-15T19:10:59;7.40;99.90
42803;DHT22;28447;48.682;9.022;2023-04-15T19:13:24;7.40;99.90
42803;DHT22;28447;48.682;9.022;2023-04-15T19:15:51;7.40;99.90
42803;DHT22;28447;48.682;9.022;2023-04-15T19:18:17;7.30;99.90
42803;DHT22;28447;48.682;9.022;2023-04-15T19:20:43;7.40;99.90
42803;DHT22;28447;48.682;9.022;2023-04-15T19:23:09;7.40;99.90
42803;DHT22;28447;48.682;9.022;2023-04-15T19:25:36;7.60;99.90
42803;DHT22;28447;48.682;9.022;2023-04-15T19:28:02;7.50;99.90
42803;DHT22;28447;48.682;9.022;2023-04-15T19:30:29;7.40;99.90
42803;DHT22;28447;48.682;9.022;2023-04-15T19:32:56;7.40;99.90
42803;DHT22;28447;48.682;9.022;2023-04-15T19:35:22;7.40;99.90
42803;DHT22;28447;48.682;9.022;2023-04-15T19:37:48;7.40;99.90
42803;DHT22;28447;48.682;9.022;2023-04-15T19:40:15;7.40;99.90
42803;DHT22;28447;48.682;9.022;2023-04-15T19:42:41;7.30;99.90
42803;DHT22;28447;48.682;9.022;2023-04-15T19:45:07;7.40;99.90
42803;DHT22;28447;48.682;9.022;2023-04-15T19:47:33;7.40;99.90
42803;DHT22;28447;48.682;9.022;2023-04-15T19:49:59;7.30;99.90
42803;DHT22;28447;48.682;9.022;2023-04-15T19:52:25;7.40;99.90
42803;DHT22;28447;48.682;9.022;2023-04-15T19:54:50;7.30;99.90
42803;DHT22;28447;48.682;9.022;2023-04-15T19:57:16;7.20;99.90
42803;DHT22;28447;48.682;9.022;2023-04-15T19:59:42;7.20;99.90
42803;DHT22;28447;48.682;9.022;2023-04-15T20:02:08;7.20;99.90
42803;DHT22;28447;48.682;9.022;2023-04-15T20:04:33;7.30;99.90
42803;DHT22;28447;48.682;9.022;2023-04-15T20:07:02;7.30;99.90